sensor_id;sensor_type;location;lat;lon;timestamp;pressure;altitude;pressure_sealevel;temperature;humidity
33625;BME280;19962;47.820;1.930;2023-02-19T00:01:34;101684.56;;;13.61;74.51
33625;BME280;19962;47.820;1.930;2023-02-19T00:04:06;101690.13;;;13.55;74.24
33625;BME280;19962;47.820;1.930;2023-02-19T00:06:33;101696.88;;;13.59;74.38
33625;BME280;19962;47.820;1.930;2023-02-19T00:09:00;101695.19;;;13.58;74.31
33625;BME280;19962;47.820;1.930;2023-02-19T00:11:31;101693.88;;;13.60;73.93
33625;BME280;19962;47.820;1.930;2023-02-19T00:13:59;101697.16;;;13.51;74.71
33625;BME280;19962;47.820;1.930;2023-02-19T00:16:29;101697.78;;;13.46;74.79
33625;BME280;19962;47.820;1.930;2023-02-19T00:18:57;101693.72;;;13.55;75.17
33625;BME280;19962;47.820;1.930;2023-02-19T00:21:24;101692.25;;;13.53;75.29
33625;BME280;19962;47.820;1.930;2023-02-19T00:23:56;101693.28;;;13.58;74.68
33625;BME280;19962;47.820;1.930;2023-02-19T00:26:22;101701.75;;;13.57;74.33
33625;BME280;19962;47.820;1.930;2023-02-19T00:28:50;101705.41;;;13.51;74.77
33625;BME280;19962;47.820;1.930;2023-02-19T00:31:25;101698.84;;;13.52;74.56
33625;BME280;19962;47.820;1.930;2023-02-19T00:33:57;101707.31;;;13.50;75.12
33625;BME280;19962;47.820;1.930;2023-02-19T00:36:25;101711.53;;;13.53;74.57
33625;BME280;19962;47.820;1.930;2023-02-19T00:38:51;101717.97;;;13.47;74.92
33625;BME280;19962;47.820;1.930;2023-02-19T00:41:19;101706.88;;;13.53;75.17
33625;BME280;19962;47.820;1.930;2023-02-19T00:43:56;101709.81;;;13.58;74.96
33625;BME280;19962;47.820;1.930;2023-02-19T00:46:28;101717.50;;;13.50;75.04
33625;BME280;19962;47.820;1.930;2023-02-19T00:48:55;101714.56;;;13.45;75.32
33625;BME280;19962;47.820;1.930;2023-02-19T00:51:24;101711.16;;;13.49;75.67
33625;BME280;19962;47.820;1.930;2023-02-19T00:53:51;101711.91;;;13.63;75.22
33625;BME280;19962;47.820;1.930;2023-02-19T00:56:17;101709.59;;;13.60;75.35
33625;BME280;19962;47.820;1.930;2023-02-19T00:58:44;101699.88;;;13.57;75.06
33625;BME280;19962;47.820;1.930;2023-02-19T01:01:10;101708.34;;;13.56;75.28
33625;BME280;19962;47.820;1.930;2023-02-19T01:03:37;101715.97;;;13.54;75.40
33625;BME280;19962;47.820;1.930;2023-02-19T01:06:05;101715.78;;;13.55;75.51
33625;BME280;19962;47.820;1.930;2023-02-19T01:08:32;101715.56;;;13.57;75.52
33625;BME280;19962;47.820;1.930;2023-02-19T01:10:58;101704.34;;;13.52;75.79
33625;BME280;19962;47.820;1.930;2023-02-19T01:13:25;101697.16;;;13.51;75.72
33625;BME280;19962;47.820;1.930;2023-02-19T01:15:51;101693.66;;;13.62;75.71
33625;BME280;19962;47.820;1.930;2023-02-19T01:18:17;101696.22;;;13.63;75.58
33625;BME280;19962;47.820;1.930;2023-02-19T01:20:44;101688.16;;;13.62;75.44
33625;BME280;19962;47.820;1.930;2023-02-19T01:23:11;101683.03;;;13.65;75.23
33625;BME280;19962;47.820;1.930;2023-02-19T01:25:39;101675.56;;;13.72;75.06
33625;BME280;19962;47.820;1.930;2023-02-19T01:28:06;101676.91;;;13.63;75.41
33625;BME280;19962;47.820;1.930;2023-02-19T01:30:36;101676.91;;;13.63;75.21
33625;BME280;19962;47.820;1.930;2023-02-19T01:33:03;101673.59;;;13.55;75.94
33625;BME280;19962;47.820;1.930;2023-02-19T01:35:29;101676.72;;;13.58;75.81
33625;BME280;19962;47.820;1.930;2023-02-19T01:37:56;101676.72;;;13.58;76.08
33625;BME280;19962;47.820;1.930;2023-02-19T01:40:22;101670.78;;;13.61;75.73
33625;BME280;19962;47.820;1.930;2023-02-19T01:42:48;101664.41;;;13.61;75.82
33625;BME280;19962;47.820;1.930;2023-02-19T01:45:25;101655.91;;;13.62;75.60
33625;BME280;19962;47.820;1.930;2023-02-19T01:47:59;101657.00;;;13.61;76.00
33625;BME280;19962;47.820;1.930;2023-02-19T01:50:31;101651.06;;;13.58;76.12
33625;BME280;19962;47.820;1.930;2023-02-19T01:53:03;101633.91;;;13.56;76.22
33625;BME280;19962;47.820;1.930;2023-02-19T01:55:32;101626.28;;;13.51;76.34
33625;BME280;19962;47.820;1.930;2023-02-19T01:57:59;101612.81;;;13.43;76.79
33625;BME280;19962;47.820;1.930;2023-02-19T02:00:26;101615.31;;;13.45;76.49
33625;BME280;19962;47.820;1.930;2023-02-19T02:02:55;101619.59;;;13.41;76.85
33625;BME280;19962;47.820;1.930;2023-02-19T02:05:47;101612.28;;;13.53;76.88
33625;BME280;19962;47.820;1.930;2023-02-19T02:08:16;101629.22;;;13.56;76.27
33625;BME280;19962;47.820;1.930;2023-02-19T02:11:01;101621.25;;;13.48;76.62
33625;BME280;19962;47.820;1.930;2023-02-19T02:13:28;101625.00;;;13.54;76.40
33625;BME280;19962;47.820;1.930;2023-02-19T02:16:15;101622.25;;;13.54;76.32
33625;BME280;19962;47.820;1.930;2023-02-19T02:21:45;101637.53;;;13.50;76.48
33625;BME280;19962;47.820;1.930;2023-02-19T02:36:13;101623.31;;;13.53;76.67
33625;BME280;19962;47.820;1.930;2023-02-19T02:38:43;101630.81;;;13.46;76.95
33625;BME280;19962;47.820;1.930;2023-02-19T02:41:11;101630.50;;;13.54;76.89
33625;BME280;19962;47.820;1.930;2023-02-19T02:43:38;101627.97;;;13.59;77.02
33625;BME280;19962;47.820;1.930;2023-02-19T02:46:04;101617.53;;;13.61;77.08
33625;BME280;19962;47.820;1.930;2023-02-19T02:48:35;101619.03;;;13.57;76.98
33625;BME280;19962;47.820;1.930;2023-02-19T02:51:26;101625.84;;;13.54;77.03
33625;BME280;19962;47.820;1.930;2023-02-19T02:56:59;101613.16;;;13.53;77.02
33625;BME280;19962;47.820;1.930;2023-02-19T02:59:28;101612.97;;;13.48;77.24
33625;BME280;19962;47.820;1.930;2023-02-19T03:02:13;101619.94;;;13.51;77.35
33625;BME280;19962;47.820;1.930;2023-02-19T03:04:48;101618.13;;;13.38;77.68
33625;BME280;19962;47.820;1.930;2023-02-19T03:07:59;101614.03;;;13.47;77.58
33625;BME280;19962;47.820;1.930;2023-02-19T03:10:28;101614.44;;;13.51;77.34
33625;BME280;19962;47.820;1.930;2023-02-19T03:12:58;101616.97;;;13.52;77.58
33625;BME280;19962;47.820;1.930;2023-02-19T03:15:49;101611.00;;;13.55;77.26
33625;BME280;19962;47.820;1.930;2023-02-19T03:18:37;101617.81;;;13.53;77.30
33625;BME280;19962;47.820;1.930;2023-02-19T03:21:23;101612.22;;;13.59;77.18
33625;BME280;19962;47.820;1.930;2023-02-19T03:23:50;101625.69;;;13.49;77.96
33625;BME280;19962;47.820;1.930;2023-02-19T03:26:37;101615.25;;;13.51;78.00
33625;BME280;19962;47.820;1.930;2023-02-19T03:29:05;101617.59;;;13.54;77.70
33625;BME280;19962;47.820;1.930;2023-02-19T03:31:51;101608.97;;;13.44;78.06
33625;BME280;19962;47.820;1.930;2023-02-19T03:34:27;101614.44;;;13.51;77.96
33625;BME280;19962;47.820;1.930;2023-02-19T03:39:57;101615.63;;;13.61;77.71
33625;BME280;19962;47.820;1.930;2023-02-19T03:42:47;101613.69;;;13.62;77.85
33625;BME280;19962;47.820;1.930;2023-02-19T03:50:28;101619.78;;;13.46;78.31
33625;BME280;19962;47.820;1.930;2023-02-19T03:53:11;101615.16;;;13.40;78.30
33625;BME280;19962;47.820;1.930;2023-02-19T03:55:45;101623.88;;;13.37;79.07
33625;BME280;19962;47.820;1.930;2023-02-19T03:58:21;101618.75;;;13.40;79.22
33625;BME280;19962;47.820;1.930;2023-02-19T04:06:25;101625.50;;;13.44;79.10
33625;BME280;19962;47.820;1.930;2023-02-19T04:08:55;101623.16;;;13.48;79.12
33625;BME280;19962;47.820;1.930;2023-02-19T04:11:24;101625.56;;;13.38;79.46
33625;BME280;19962;47.820;1.930;2023-02-19T04:17:02;101624.75;;;13.31;80.20
33625;BME280;19962;47.820;1.930;2023-02-19T04:19:33;101628.16;;;13.33;79.94
33625;BME280;19962;47.820;1.930;2023-02-19T04:22:01;101624.75;;;13.31;79.99
33625;BME280;19962;47.820;1.930;2023-02-19T04:24:39;101621.56;;;13.34;80.05
33625;BME280;19962;47.820;1.930;2023-02-19T04:27:08;101621.91;;;13.44;79.93
33625;BME280;19962;47.820;1.930;2023-02-19T04:29:35;101617.41;;;13.49;79.68
33625;BME280;19962;47.820;1.930;2023-02-19T04:32:01;101628.66;;;13.48;79.42
33625;BME280;19962;47.820;1.930;2023-02-19T04:34:27;101631.47;;;13.41;80.02
33625;BME280;19962;47.820;1.930;2023-02-19T04:36:53;101632.53;;;13.40;80.06
33625;BME280;19962;47.820;1.930;2023-02-19T04:39:19;101633.56;;;13.46;80.22
33625;BME280;19962;47.820;1.930;2023-02-19T04:41:45;101633.78;;;13.44;80.11
33625;BME280;19962;47.820;1.930;2023-02-19T04:44:11;101633.16;;;13.42;80.04
33625;BME280;19962;47.820;1.930;2023-02-19T04:46:39;101633.75;;;13.51;80.02
33625;BME280;19962;47.820;1.930;2023-02-19T04:49:06;101638.78;;;13.54;79.75
33625;BME280;19962;47.820;1.930;2023-02-19T04:51:32;101645.63;;;13.45;79.96
33625;BME280;19962;47.820;1.930;2023-02-19T04:53:58;101647.53;;;13.51;80.01
33625;BME280;19962;47.820;1.930;2023-02-19T04:56:24;101641.53;;;13.54;79.66
33625;BME280;19962;47.820;1.930;2023-02-19T04:58:50;101647.78;;;13.43;80.12
33625;BME280;19962;47.820;1.930;2023-02-19T05:01:16;101643.53;;;13.47;79.93
33625;BME280;19962;47.820;1.930;2023-02-19T05:03:44;101653.44;;;13.54;80.04
33625;BME280;19962;47.820;1.930;2023-02-19T05:06:11;101658.56;;;13.51;79.73
33625;BME280;19962;47.820;1.930;2023-02-19T05:08:38;101661.91;;;13.53;79.63
33625;BME280;19962;47.820;1.930;2023-02-19T05:11:06;101657.88;;;13.55;79.83
33625;BME280;19962;47.820;1.930;2023-02-19T05:13:33;101663.81;;;13.59;79.37
33625;BME280;19962;47.820;1.930;2023-02-19T05:16:08;101656.41;;;13.53;79.97
33625;BME280;19962;47.820;1.930;2023-02-19T05:18:34;101660.22;;;13.52;79.76
33625;BME280;19962;47.820;1.930;2023-02-19T05:21:01;101668.69;;;13.57;80.01
33625;BME280;19962;47.820;1.930;2023-02-19T05:23:27;101661.03;;;13.59;79.65
33625;BME280;19962;47.820;1.930;2023-02-19T05:25:54;101671.66;;;13.55;79.89
33625;BME280;19962;47.820;1.930;2023-02-19T05:28:20;101671.00;;;13.60;79.53
33625;BME280;19962;47.820;1.930;2023-02-19T05:30:53;101669.78;;;13.49;79.82
33625;BME280;19962;47.820;1.930;2023-02-19T05:33:21;101670.41;;;13.51;79.86
33625;BME280;19962;47.820;1.930;2023-02-19T05:35:53;101679.78;;;13.44;79.96
33625;BME280;19962;47.820;1.930;2023-02-19T05:38:20;101676.84;;;13.39;80.55
33625;BME280;19962;47.820;1.930;2023-02-19T05:40:47;101673.84;;;13.47;80.51
33625;BME280;19962;47.820;1.930;2023-02-19T05:43:13;101682.38;;;13.39;80.53
33625;BME280;19962;47.820;1.930;2023-02-19T05:45:39;101684.06;;;13.40;80.52
33625;BME280;19962;47.820;1.930;2023-02-19T05:48:06;101678.09;;;13.43;80.45
33625;BME280;19962;47.820;1.930;2023-02-19T05:50:35;101683.38;;;13.51;80.11
33625;BME280;19962;47.820;1.930;2023-02-19T05:53:02;101685.75;;;13.41;80.52
33625;BME280;19962;47.820;1.930;2023-02-19T05:55:29;101691.47;;;13.46;80.60
33625;BME280;19962;47.820;1.930;2023-02-19T05:57:58;101684.41;;;13.50;80.26
33625;BME280;19962;47.820;1.930;2023-02-19T06:00:24;101683.19;;;13.46;80.33
33625;BME280;19962;47.820;1.930;2023-02-19T06:02:52;101686.56;;;13.48;80.67
33625;BME280;19962;47.820;1.930;2023-02-19T06:05:19;101689.91;;;13.50;80.37
33625;BME280;19962;47.820;1.930;2023-02-19T06:07:45;101692.06;;;13.48;80.46
33625;BME280;19962;47.820;1.930;2023-02-19T06:10:12;101690.00;;;13.43;80.40
33625;BME280;19962;47.820;1.930;2023-02-19T06:12:38;101697.84;;;13.40;80.54
33625;BME280;19962;47.820;1.930;2023-02-19T06:15:05;101698.91;;;13.39;80.89
33625;BME280;19962;47.820;1.930;2023-02-19T06:17:33;101706.47;;;13.50;80.42
33625;BME280;19962;47.820;1.930;2023-02-19T06:19:59;101707.53;;;13.49;80.35
33625;BME280;19962;47.820;1.930;2023-02-19T06:22:26;101714.53;;;13.51;80.54
33625;BME280;19962;47.820;1.930;2023-02-19T06:24:52;101711.31;;;13.54;80.46
33625;BME280;19962;47.820;1.930;2023-02-19T06:27:18;101726.22;;;13.47;80.98
33625;BME280;19962;47.820;1.930;2023-02-19T06:29:44;101727.06;;;13.47;80.81
33625;BME280;19962;47.820;1.930;2023-02-19T06:32:10;101726.84;;;13.49;80.78
33625;BME280;19962;47.820;1.930;2023-02-19T06:34:36;101718.75;;;13.54;80.47
33625;BME280;19962;47.820;1.930;2023-02-19T06:37:03;101724.75;;;13.44;80.70
33625;BME280;19962;47.820;1.930;2023-02-19T06:39:29;101723.25;;;13.48;80.66
33625;BME280;19962;47.820;1.930;2023-02-19T06:41:56;101733.00;;;13.51;80.65
33625;BME280;19962;47.820;1.930;2023-02-19T06:44:23;101733.63;;;13.46;80.88
33625;BME280;19962;47.820;1.930;2023-02-19T06:46:49;101745.31;;;13.48;80.52
33625;BME280;19962;47.820;1.930;2023-02-19T06:49:16;101732.34;;;13.49;80.76
33625;BME280;19962;47.820;1.930;2023-02-19T06:51:42;101745.97;;;13.44;80.74
33625;BME280;19962;47.820;1.930;2023-02-19T06:54:08;101743.59;;;13.47;80.84
33625;BME280;19962;47.820;1.930;2023-02-19T06:56:37;101752.94;;;13.46;81.03
33625;BME280;19962;47.820;1.930;2023-02-19T06:59:06;101743.38;;;13.49;80.96
33625;BME280;19962;47.820;1.930;2023-02-19T07:01:34;101753.78;;;13.47;80.97
33625;BME280;19962;47.820;1.930;2023-02-19T07:04:01;101742.31;;;13.50;81.07
33625;BME280;19962;47.820;1.930;2023-02-19T07:06:28;101749.34;;;13.46;80.95
33625;BME280;19962;47.820;1.930;2023-02-19T07:08:56;101761.38;;;13.51;81.00
33625;BME280;19962;47.820;1.930;2023-02-19T07:11:22;101756.94;;;13.50;81.06
33625;BME280;19962;47.820;1.930;2023-02-19T07:13:54;101753.63;;;13.42;81.37
33625;BME280;19962;47.820;1.930;2023-02-19T07:16:21;101750.22;;;13.40;81.73
33625;BME280;19962;47.820;1.930;2023-02-19T07:18:48;101755.06;;;13.51;81.09
33625;BME280;19962;47.820;1.930;2023-02-19T07:21:15;101753.53;;;13.55;80.93
33625;BME280;19962;47.820;1.930;2023-02-19T07:23:42;101757.34;;;13.54;80.73
33625;BME280;19962;47.820;1.930;2023-02-19T07:26:10;101766.25;;;13.56;81.00
33625;BME280;19962;47.820;1.930;2023-02-19T07:28:36;101761.34;;;13.58;80.82
33625;BME280;19962;47.820;1.930;2023-02-19T07:31:03;101763.75;;;13.48;81.48
33625;BME280;19962;47.820;1.930;2023-02-19T07:33:30;101771.78;;;13.56;81.00
33625;BME280;19962;47.820;1.930;2023-02-19T07:35:56;101775.78;;;13.60;80.98
33625;BME280;19962;47.820;1.930;2023-02-19T07:38:23;101778.06;;;13.63;80.75
33625;BME280;19962;47.820;1.930;2023-02-19T07:40:51;101776.00;;;13.58;80.81
33625;BME280;19962;47.820;1.930;2023-02-19T07:43:18;101768.38;;;13.54;80.95
33625;BME280;19962;47.820;1.930;2023-02-19T07:45:44;101771.78;;;13.56;80.82
33625;BME280;19962;47.820;1.930;2023-02-19T07:48:11;101771.78;;;13.56;80.97
33625;BME280;19962;47.820;1.930;2023-02-19T07:50:37;101776.84;;;13.59;80.82
33625;BME280;19962;47.820;1.930;2023-02-19T07:53:03;101776.84;;;13.59;80.74
33625;BME280;19962;47.820;1.930;2023-02-19T07:55:31;101782.13;;;13.60;81.28
33625;BME280;19962;47.820;1.930;2023-02-19T07:57:58;101784.25;;;13.65;81.19
33625;BME280;19962;47.820;1.930;2023-02-19T08:00:25;101792.47;;;13.71;80.77
33625;BME280;19962;47.820;1.930;2023-02-19T08:02:52;101787.34;;;13.75;80.36
33625;BME280;19962;47.820;1.930;2023-02-19T08:05:38;101795.19;;;13.78;80.76
33625;BME280;19962;47.820;1.930;2023-02-19T08:08:07;101799.44;;;13.80;80.84
33625;BME280;19962;47.820;1.930;2023-02-19T08:10:33;101802.56;;;13.84;80.61
33625;BME280;19962;47.820;1.930;2023-02-19T08:13:17;101813.00;;;13.82;80.39
33625;BME280;19962;47.820;1.930;2023-02-19T08:15:51;101817.47;;;13.76;80.48
33625;BME280;19962;47.820;1.930;2023-02-19T08:18:21;101809.16;;;13.83;80.40
33625;BME280;19962;47.820;1.930;2023-02-19T08:20:47;101813.88;;;13.76;80.52
33625;BME280;19962;47.820;1.930;2023-02-19T08:23:14;101815.97;;;13.80;80.43
33625;BME280;19962;47.820;1.930;2023-02-19T08:25:42;101816.19;;;13.79;80.24
33625;BME280;19962;47.820;1.930;2023-02-19T08:28:09;101822.56;;;13.79;80.43
33625;BME280;19962;47.820;1.930;2023-02-19T08:30:37;101829.34;;;13.83;80.12
33625;BME280;19962;47.820;1.930;2023-02-19T08:33:04;101829.72;;;13.87;80.39
33625;BME280;19962;47.820;1.930;2023-02-19T08:35:32;101830.13;;;13.90;80.15
33625;BME280;19962;47.820;1.930;2023-02-19T08:38:00;101840.25;;;13.96;80.10
33625;BME280;19962;47.820;1.930;2023-02-19T08:40:26;101838.78;;;13.94;79.80
33625;BME280;19962;47.820;1.930;2023-02-19T08:42:52;101834.78;;;13.90;80.19
33625;BME280;19962;47.820;1.930;2023-02-19T08:45:19;101830.34;;;13.89;80.23
33625;BME280;19962;47.820;1.930;2023-02-19T08:47:45;101828.13;;;13.73;80.58
33625;BME280;19962;47.820;1.930;2023-02-19T08:50:11;101840.41;;;13.77;80.66
33625;BME280;19962;47.820;1.930;2023-02-19T08:52:37;101834.38;;;13.86;80.34
33625;BME280;19962;47.820;1.930;2023-02-19T08:55:05;101835.25;;;13.87;80.48
33625;BME280;19962;47.820;1.930;2023-02-19T08:57:33;101836.91;;;13.94;80.21
33625;BME280;19962;47.820;1.930;2023-02-19T09:00:00;101837.28;;;13.98;79.83
33625;BME280;19962;47.820;1.930;2023-02-19T09:02:26;101843.66;;;13.98;79.75
33625;BME280;19962;47.820;1.930;2023-02-19T09:04:52;101850.66;;;14.01;80.03
33625;BME280;19962;47.820;1.930;2023-02-19T09:07:18;101854.06;;;13.96;80.15
33625;BME280;19962;47.820;1.930;2023-02-19T09:09:45;101851.00;;;14.11;79.71
33625;BME280;19962;47.820;1.930;2023-02-19T09:12:11;101849.50;;;14.15;79.41
33625;BME280;19962;47.820;1.930;2023-02-19T09:14:38;101858.41;;;14.23;79.47
33625;BME280;19962;47.820;1.930;2023-02-19T09:17:06;101854.09;;;14.27;79.02
33625;BME280;19962;47.820;1.930;2023-02-19T09:19:33;101858.34;;;14.30;79.21
33625;BME280;19962;47.820;1.930;2023-02-19T09:21:59;101860.25;;;14.29;78.69
33625;BME280;19962;47.820;1.930;2023-02-19T09:24:25;101863.63;;;14.31;78.64
33625;BME280;19962;47.820;1.930;2023-02-19T09:26:53;101877.00;;;14.34;78.25
33625;BME280;19962;47.820;1.930;2023-02-19T09:29:20;101869.25;;;14.12;78.54
33625;BME280;19962;47.820;1.930;2023-02-19T09:31:46;101878.00;;;14.09;79.00
33625;BME280;19962;47.820;1.930;2023-02-19T09:34:12;101882.22;;;14.11;79.14
33625;BME280;19962;47.820;1.930;2023-02-19T09:36:39;101874.34;;;14.15;78.84
33625;BME280;19962;47.820;1.930;2023-02-19T09:39:07;101885.53;;;14.26;78.47
33625;BME280;19962;47.820;1.930;2023-02-19T09:41:36;101877.06;;;14.28;78.36
33625;BME280;19962;47.820;1.930;2023-02-19T09:44:05;101880.88;;;14.27;78.19
33625;BME280;19962;47.820;1.930;2023-02-19T09:46:39;101880.16;;;14.38;77.74
33625;BME280;19962;47.820;1.930;2023-02-19T09:49:14;101886.28;;;14.46;77.28
33625;BME280;19962;47.820;1.930;2023-02-19T09:51:45;101884.34;;;14.47;77.21
33625;BME280;19962;47.820;1.930;2023-02-19T09:54:20;101885.69;;;14.38;76.94
33625;BME280;19962;47.820;1.930;2023-02-19T09:56:47;101885.69;;;14.38;77.04
33625;BME280;19962;47.820;1.930;2023-02-19T09:59:25;101885.13;;;14.29;75.90
33625;BME280;19962;47.820;1.930;2023-02-19T10:02:17;101882.09;;;14.00;77.30
33625;BME280;19962;47.820;1.930;2023-02-19T10:04:43;101886.94;;;13.98;77.92
33625;BME280;19962;47.820;1.930;2023-02-19T10:07:12;101876.25;;;14.14;76.69
33625;BME280;19962;47.820;1.930;2023-02-19T10:09:39;101885.56;;;14.20;76.29
33625;BME280;19962;47.820;1.930;2023-02-19T10:12:14;101884.09;;;14.17;74.67
33625;BME280;19962;47.820;1.930;2023-02-19T10:14:52;101874.38;;;14.08;73.69
33625;BME280;19962;47.820;1.930;2023-02-19T10:17:25;101874.97;;;14.23;74.67
33625;BME280;19962;47.820;1.930;2023-02-19T10:19:52;101872.38;;;14.28;74.81
33625;BME280;19962;47.820;1.930;2023-02-19T10:22:19;101878.47;;;14.37;74.17
33625;BME280;19962;47.820;1.930;2023-02-19T10:24:49;101897.97;;;14.42;73.93
33625;BME280;19962;47.820;1.930;2023-02-19T10:27:16;101873.13;;;14.42;74.17
33625;BME280;19962;47.820;1.930;2023-02-19T10:29:45;101870.91;;;14.57;73.98
33625;BME280;19962;47.820;1.930;2023-02-19T10:32:22;101873.34;;;14.65;73.74
33625;BME280;19962;47.820;1.930;2023-02-19T10:35:14;101878.09;;;14.58;72.24
33625;BME280;19962;47.820;1.930;2023-02-19T10:37:45;101886.66;;;14.50;73.02
33625;BME280;19962;47.820;1.930;2023-02-19T10:40:17;101876.22;;;14.52;73.36
33625;BME280;19962;47.820;1.930;2023-02-19T10:42:49;101886.88;;;14.48;72.92
33625;BME280;19962;47.820;1.930;2023-02-19T10:45:22;101888.63;;;14.43;72.77
33625;BME280;19962;47.820;1.930;2023-02-19T10:47:50;101896.91;;;14.43;72.70
33625;BME280;19962;47.820;1.930;2023-02-19T10:50:31;101909.66;;;14.44;72.46
33625;BME280;19962;47.820;1.930;2023-02-19T10:52:59;101913.28;;;14.38;72.51
33625;BME280;19962;47.820;1.930;2023-02-19T10:55:29;101904.63;;;14.34;71.91
33625;BME280;19962;47.820;1.930;2023-02-19T10:57:56;101895.34;;;14.53;71.91
33625;BME280;19962;47.820;1.930;2023-02-19T11:00:29;101890.72;;;14.47;70.43
33625;BME280;19962;47.820;1.930;2023-02-19T11:03:21;101900.00;;;14.28;68.51
33625;BME280;19962;47.820;1.930;2023-02-19T11:05:53;101900.31;;;14.45;70.27
33625;BME280;19962;47.820;1.930;2023-02-19T11:08:23;101904.03;;;14.57;70.47
33625;BME280;19962;47.820;1.930;2023-02-19T11:10:49;101901.44;;;14.62;70.11
33625;BME280;19962;47.820;1.930;2023-02-19T11:13:21;101899.56;;;14.56;69.64
33625;BME280;19962;47.820;1.930;2023-02-19T11:15:52;101897.09;;;14.48;68.34
33625;BME280;19962;47.820;1.930;2023-02-19T11:18:26;101893.53;;;14.41;68.69
33625;BME280;19962;47.820;1.930;2023-02-19T11:20:58;101895.47;;;14.34;68.28
33625;BME280;19962;47.820;1.930;2023-02-19T11:23:44;101893.88;;;14.13;69.56
33625;BME280;19962;47.820;1.930;2023-02-19T11:26:24;101888.91;;;14.35;68.38
33625;BME280;19962;47.820;1.930;2023-02-19T11:28:56;101886.06;;;14.48;68.52
33625;BME280;19962;47.820;1.930;2023-02-19T11:31:28;101883.16;;;14.61;67.40
33625;BME280;19962;47.820;1.930;2023-02-19T11:37:07;101881.13;;;14.50;65.49
33625;BME280;19962;47.820;1.930;2023-02-19T11:39:36;101887.56;;;14.44;67.21
33625;BME280;19962;47.820;1.930;2023-02-19T11:42:26;101884.13;;;14.48;65.89
33625;BME280;19962;47.820;1.930;2023-02-19T11:45:16;101887.00;;;14.60;66.27
33625;BME280;19962;47.820;1.930;2023-02-19T11:48:16;101889.50;;;14.68;65.77
33625;BME280;19962;47.820;1.930;2023-02-19T11:56:18;101869.13;;;14.62;65.36
33625;BME280;19962;47.820;1.930;2023-02-19T12:07:01;101873.66;;;15.24;63.79
33625;BME280;19962;47.820;1.930;2023-02-19T12:20:29;101874.09;;;15.21;61.32
33625;BME280;19962;47.820;1.930;2023-02-19T12:31:41;101866.75;;;15.15;59.64
33625;BME280;19962;47.820;1.930;2023-02-19T12:34:18;101864.75;;;15.22;60.26
33625;BME280;19962;47.820;1.930;2023-02-19T12:39:56;101863.28;;;15.19;60.69
33625;BME280;19962;47.820;1.930;2023-02-19T12:45:26;101864.56;;;14.99;60.32
33625;BME280;19962;47.820;1.930;2023-02-19T12:48:23;101868.13;;;14.57;59.47
33625;BME280;19962;47.820;1.930;2023-02-19T12:51:01;101873.13;;;14.91;60.97
33625;BME280;19962;47.820;1.930;2023-02-19T12:53:46;101878.44;;;14.92;60.50
33625;BME280;19962;47.820;1.930;2023-02-19T12:57:09;101869.78;;;15.07;60.29
33625;BME280;19962;47.820;1.930;2023-02-19T12:59:32;101866.84;;;15.26;60.20
33625;BME280;19962;47.820;1.930;2023-02-19T13:02:18;101862.59;;;15.24;60.15
33625;BME280;19962;47.820;1.930;2023-02-19T13:05:00;101855.78;;;15.26;59.40
33625;BME280;19962;47.820;1.930;2023-02-19T13:10:37;101861.78;;;14.99;57.34
33625;BME280;19962;47.820;1.930;2023-02-19T13:13:24;101862.69;;;15.17;59.58
33625;BME280;19962;47.820;1.930;2023-02-19T13:15:54;101865.50;;;15.11;58.71
33625;BME280;19962;47.820;1.930;2023-02-19T13:18:34;101855.13;;;15.24;59.27
33625;BME280;19962;47.820;1.930;2023-02-19T13:21:05;101850.16;;;15.33;59.18
33625;BME280;19962;47.820;1.930;2023-02-19T13:23:34;101852.47;;;15.36;58.82
33625;BME280;19962;47.820;1.930;2023-02-19T13:29:47;101857.97;;;15.18;58.16
33625;BME280;19962;47.820;1.930;2023-02-19T13:35:27;101865.38;;;15.24;57.86
33625;BME280;19962;47.820;1.930;2023-02-19T13:38:01;101854.06;;;15.25;58.35
33625;BME280;19962;47.820;1.930;2023-02-19T13:40:38;101847.84;;;15.30;58.02
33625;BME280;19962;47.820;1.930;2023-02-19T13:43:07;101840.63;;;15.29;58.46
33625;BME280;19962;47.820;1.930;2023-02-19T13:45:40;101833.03;;;15.42;58.37
33625;BME280;19962;47.820;1.930;2023-02-19T13:48:31;101839.13;;;15.51;57.95
33625;BME280;19962;47.820;1.930;2023-02-19T14:14:49;101818.59;;;15.22;57.52
33625;BME280;19962;47.820;1.930;2023-02-19T14:27:46;101789.41;;;15.26;59.08
33625;BME280;19962;47.820;1.930;2023-02-19T14:30:21;101792.72;;;15.17;58.57
33625;BME280;19962;47.820;1.930;2023-02-19T14:32:48;101796.25;;;15.06;59.58
33625;BME280;19962;47.820;1.930;2023-02-19T14:35:23;101786.72;;;15.02;59.21
33625;BME280;19962;47.820;1.930;2023-02-19T14:37:51;101771.13;;;15.07;59.43
33625;BME280;19962;47.820;1.930;2023-02-19T14:40:27;101775.66;;;15.02;58.92
33625;BME280;19962;47.820;1.930;2023-02-19T14:42:57;101787.69;;;15.07;59.24
33625;BME280;19962;47.820;1.930;2023-02-19T14:45:24;101769.34;;;15.13;59.25
33625;BME280;19962;47.820;1.930;2023-02-19T14:47:54;101754.69;;;15.12;59.53
33625;BME280;19962;47.820;1.930;2023-02-19T14:50:31;101755.91;;;15.16;59.37
33625;BME280;19962;47.820;1.930;2023-02-19T14:53:07;101767.44;;;15.13;58.89
33625;BME280;19962;47.820;1.930;2023-02-19T14:55:35;101763.81;;;15.13;59.15
33625;BME280;19962;47.820;1.930;2023-02-19T14:58:11;101755.84;;;15.05;59.08
33625;BME280;19962;47.820;1.930;2023-02-19T15:00:39;101754.31;;;15.09;59.27
33625;BME280;19962;47.820;1.930;2023-02-19T15:03:22;101753.63;;;15.13;59.40
33625;BME280;19962;47.820;1.930;2023-02-19T15:06:01;101754.31;;;15.09;59.45
33625;BME280;19962;47.820;1.930;2023-02-19T15:08:32;101747.25;;;15.13;59.26
33625;BME280;19962;47.820;1.930;2023-02-19T15:11:01;101753.41;;;15.15;59.56